Watova, Oklahoma
Current Conditions -  °F | °C
As of 10:05 PM on Saturday 25 Oct 2014 (Local Time) from KBVO Reporting Station
Haze Haze  
Wind Chill: 59°   Ceiling: Unl
Heat Index: 59°   Visibility: 3mi
Dew Point: 59°   Wind: 0mph
Humidity: 100%   Direction: NA
Pressure: 30"   Gusts: NA
Location:  36.6745°N, 95.6917°W
Report Text: KBVO 260305Z AUTO 00000KT 3SM BR CLR 15/15 A3000 RMK AO2 T01500150 $
Loading
Personal Weather Stations






























Interactive Weather Map
Tropical Storm Tracking
New forecast layout! Learn more

10-Day Weather Forecast

Advertisements
Track Severe Weather on mobile